sensor_id;sensor_type;location;lat;lon;timestamp;P1;durP1;ratioP1;P2;durP2;ratioP2
36745;SDS011;22715;52.182;21.206;2022-10-16T00:02:17;19.08;;;12.38;;
36745;SDS011;22715;52.182;21.206;2022-10-16T00:04:42;17.65;;;11.88;;
36745;SDS011;22715;52.182;21.206;2022-10-16T00:07:08;18.27;;;13.38;;
36745;SDS011;22715;52.182;21.206;2022-10-16T00:09:33;17.25;;;12.30;;
36745;SDS011;22715;52.182;21.206;2022-10-16T00:11:58;19.08;;;12.95;;
36745;SDS011;22715;52.182;21.206;2022-10-16T00:14:24;20.27;;;13.75;;
36745;SDS011;22715;52.182;21.206;2022-10-16T00:16:49;19.52;;;13.40;;
36745;SDS011;22715;52.182;21.206;2022-10-16T00:19:14;19.70;;;13.55;;
36745;SDS011;22715;52.182;21.206;2022-10-16T00:21:40;20.13;;;13.38;;
36745;SDS011;22715;52.182;21.206;2022-10-16T00:24:07;18.73;;;12.93;;
36745;SDS011;22715;52.182;21.206;2022-10-16T00:26:34;15.15;;;11.10;;
36745;SDS011;22715;52.182;21.206;2022-10-16T00:28:59;22.98;;;13.30;;
36745;SDS011;22715;52.182;21.206;2022-10-16T00:31:25;21.50;;;13.48;;
36745;SDS011;22715;52.182;21.206;2022-10-16T00:33:53;18.95;;;13.00;;
36745;SDS011;22715;52.182;21.206;2022-10-16T00:36:20;19.17;;;14.70;;
36745;SDS011;22715;52.182;21.206;2022-10-16T00:38:45;20.05;;;13.27;;
36745;SDS011;22715;52.182;21.206;2022-10-16T00:41:13;22.05;;;14.40;;
36745;SDS011;22715;52.182;21.206;2022-10-16T00:46:08;25.00;;;13.75;;
36745;SDS011;22715;52.182;21.206;2022-10-16T00:48:34;20.47;;;14.53;;
36745;SDS011;22715;52.182;21.206;2022-10-16T00:50:59;18.33;;;12.45;;
36745;SDS011;22715;52.182;21.206;2022-10-16T00:53:25;18.00;;;13.32;;
36745;SDS011;22715;52.182;21.206;2022-10-16T00:55:51;17.77;;;12.77;;
36745;SDS011;22715;52.182;21.206;2022-10-16T00:58:17;23.80;;;15.10;;
36745;SDS011;22715;52.182;21.206;2022-10-16T01:00:42;20.10;;;13.73;;
36745;SDS011;22715;52.182;21.206;2022-10-16T01:03:24;18.20;;;14.57;;
36745;SDS011;22715;52.182;21.206;2022-10-16T01:05:53;23.15;;;14.73;;
36745;SDS011;22715;52.182;21.206;2022-10-16T01:08:27;19.08;;;12.98;;
36745;SDS011;22715;52.182;21.206;2022-10-16T01:13:41;25.35;;;14.02;;
36745;SDS011;22715;52.182;21.206;2022-10-16T01:16:16;22.00;;;14.88;;
36745;SDS011;22715;52.182;21.206;2022-10-16T01:18:45;20.77;;;13.95;;
36745;SDS011;22715;52.182;21.206;2022-10-16T01:23:42;17.95;;;13.65;;
36745;SDS011;22715;52.182;21.206;2022-10-16T01:26:13;20.63;;;13.43;;
36745;SDS011;22715;52.182;21.206;2022-10-16T01:28:46;22.13;;;15.30;;
36745;SDS011;22715;52.182;21.206;2022-10-16T01:31:12;18.40;;;13.35;;
36745;SDS011;22715;52.182;21.206;2022-10-16T01:33:43;21.52;;;13.43;;
36745;SDS011;22715;52.182;21.206;2022-10-16T01:38:36;23.88;;;14.85;;
36745;SDS011;22715;52.182;21.206;2022-10-16T01:41:13;22.73;;;16.25;;
36745;SDS011;22715;52.182;21.206;2022-10-16T01:43:42;21.17;;;15.82;;
36745;SDS011;22715;52.182;21.206;2022-10-16T01:46:08;23.95;;;13.68;;
36745;SDS011;22715;52.182;21.206;2022-10-16T01:48:35;24.42;;;15.55;;
36745;SDS011;22715;52.182;21.206;2022-10-16T01:51:03;25.52;;;15.95;;
36745;SDS011;22715;52.182;21.206;2022-10-16T01:53:29;20.17;;;15.93;;
36745;SDS011;22715;52.182;21.206;2022-10-16T01:55:55;23.25;;;15.48;;
36745;SDS011;22715;52.182;21.206;2022-10-16T01:58:22;26.55;;;15.98;;
36745;SDS011;22715;52.182;21.206;2022-10-16T02:00:49;23.02;;;14.82;;
36745;SDS011;22715;52.182;21.206;2022-10-16T02:03:16;29.70;;;17.88;;
36745;SDS011;22715;52.182;21.206;2022-10-16T02:05:44;24.40;;;16.25;;
36745;SDS011;22715;52.182;21.206;2022-10-16T02:08:10;28.45;;;18.90;;
36745;SDS011;22715;52.182;21.206;2022-10-16T02:10:36;24.75;;;16.45;;
36745;SDS011;22715;52.182;21.206;2022-10-16T02:13:12;22.38;;;16.40;;
36745;SDS011;22715;52.182;21.206;2022-10-16T02:15:38;24.13;;;16.23;;
36745;SDS011;22715;52.182;21.206;2022-10-16T02:18:04;23.38;;;17.17;;
36745;SDS011;22715;52.182;21.206;2022-10-16T02:20:31;22.33;;;15.02;;
36745;SDS011;22715;52.182;21.206;2022-10-16T02:22:57;21.30;;;16.05;;
36745;SDS011;22715;52.182;21.206;2022-10-16T02:25:35;23.85;;;16.02;;
36745;SDS011;22715;52.182;21.206;2022-10-16T02:28:03;27.73;;;17.00;;
36745;SDS011;22715;52.182;21.206;2022-10-16T02:30:30;26.38;;;17.08;;
36745;SDS011;22715;52.182;21.206;2022-10-16T02:32:57;26.58;;;19.13;;
36745;SDS011;22715;52.182;21.206;2022-10-16T02:35:24;24.23;;;16.52;;
36745;SDS011;22715;52.182;21.206;2022-10-16T02:37:50;24.08;;;16.58;;
36745;SDS011;22715;52.182;21.206;2022-10-16T02:40:16;21.77;;;15.98;;
36745;SDS011;22715;52.182;21.206;2022-10-16T02:42:41;25.05;;;15.95;;
36745;SDS011;22715;52.182;21.206;2022-10-16T02:45:08;25.63;;;15.55;;
36745;SDS011;22715;52.182;21.206;2022-10-16T02:47:34;26.48;;;17.95;;
36745;SDS011;22715;52.182;21.206;2022-10-16T02:49:59;23.33;;;16.20;;
36745;SDS011;22715;52.182;21.206;2022-10-16T02:52:24;25.90;;;16.65;;
36745;SDS011;22715;52.182;21.206;2022-10-16T02:54:50;20.17;;;15.88;;
36745;SDS011;22715;52.182;21.206;2022-10-16T02:57:15;27.42;;;16.33;;
36745;SDS011;22715;52.182;21.206;2022-10-16T02:59:40;23.05;;;13.38;;
36745;SDS011;22715;52.182;21.206;2022-10-16T03:02:06;22.00;;;15.93;;
36745;SDS011;22715;52.182;21.206;2022-10-16T03:04:31;18.20;;;14.30;;
36745;SDS011;22715;52.182;21.206;2022-10-16T03:06:57;23.95;;;16.13;;
36745;SDS011;22715;52.182;21.206;2022-10-16T03:09:22;24.45;;;15.00;;
36745;SDS011;22715;52.182;21.206;2022-10-16T03:11:47;22.27;;;15.50;;
36745;SDS011;22715;52.182;21.206;2022-10-16T03:14:12;19.17;;;14.38;;
36745;SDS011;22715;52.182;21.206;2022-10-16T03:16:38;26.63;;;18.52;;
36745;SDS011;22715;52.182;21.206;2022-10-16T03:19:03;21.67;;;16.13;;
36745;SDS011;22715;52.182;21.206;2022-10-16T03:21:29;23.80;;;15.55;;
36745;SDS011;22715;52.182;21.206;2022-10-16T03:23:54;21.85;;;14.38;;
36745;SDS011;22715;52.182;21.206;2022-10-16T03:26:20;17.98;;;14.32;;
36745;SDS011;22715;52.182;21.206;2022-10-16T03:28:45;21.98;;;13.95;;
36745;SDS011;22715;52.182;21.206;2022-10-16T03:31:10;18.30;;;13.73;;
36745;SDS011;22715;52.182;21.206;2022-10-16T03:33:36;21.00;;;15.07;;
36745;SDS011;22715;52.182;21.206;2022-10-16T03:36:01;19.92;;;14.73;;
36745;SDS011;22715;52.182;21.206;2022-10-16T03:38:27;22.73;;;15.43;;
36745;SDS011;22715;52.182;21.206;2022-10-16T03:40:52;23.40;;;14.93;;
36745;SDS011;22715;52.182;21.206;2022-10-16T03:43:17;22.08;;;15.32;;
36745;SDS011;22715;52.182;21.206;2022-10-16T03:45:42;23.08;;;16.58;;
36745;SDS011;22715;52.182;21.206;2022-10-16T03:48:08;21.88;;;14.48;;
36745;SDS011;22715;52.182;21.206;2022-10-16T03:50:33;24.83;;;15.75;;
36745;SDS011;22715;52.182;21.206;2022-10-16T03:52:58;22.88;;;16.23;;
36745;SDS011;22715;52.182;21.206;2022-10-16T03:55:24;22.88;;;15.93;;
36745;SDS011;22715;52.182;21.206;2022-10-16T03:57:49;22.83;;;15.52;;
36745;SDS011;22715;52.182;21.206;2022-10-16T04:00:14;23.20;;;15.57;;
36745;SDS011;22715;52.182;21.206;2022-10-16T04:02:40;16.55;;;13.75;;
36745;SDS011;22715;52.182;21.206;2022-10-16T04:05:05;20.95;;;14.18;;
36745;SDS011;22715;52.182;21.206;2022-10-16T04:07:31;19.83;;;15.43;;
36745;SDS011;22715;52.182;21.206;2022-10-16T04:09:56;22.35;;;14.32;;
36745;SDS011;22715;52.182;21.206;2022-10-16T04:12:23;17.08;;;13.68;;
36745;SDS011;22715;52.182;21.206;2022-10-16T04:14:49;20.55;;;13.05;;
36745;SDS011;22715;52.182;21.206;2022-10-16T04:17:14;19.48;;;15.00;;
36745;SDS011;22715;52.182;21.206;2022-10-16T04:19:39;20.92;;;13.43;;
36745;SDS011;22715;52.182;21.206;2022-10-16T04:22:05;19.38;;;14.82;;
36745;SDS011;22715;52.182;21.206;2022-10-16T04:24:30;16.17;;;12.73;;
36745;SDS011;22715;52.182;21.206;2022-10-16T04:26:55;21.30;;;14.10;;
36745;SDS011;22715;52.182;21.206;2022-10-16T04:29:21;17.02;;;12.45;;
36745;SDS011;22715;52.182;21.206;2022-10-16T04:31:46;16.50;;;13.05;;
36745;SDS011;22715;52.182;21.206;2022-10-16T04:34:12;16.83;;;12.82;;
36745;SDS011;22715;52.182;21.206;2022-10-16T04:36:37;19.02;;;12.75;;
36745;SDS011;22715;52.182;21.206;2022-10-16T04:39:03;20.70;;;13.60;;
36745;SDS011;22715;52.182;21.206;2022-10-16T04:41:28;22.65;;;12.63;;
36745;SDS011;22715;52.182;21.206;2022-10-16T04:43:53;19.30;;;14.02;;
36745;SDS011;22715;52.182;21.206;2022-10-16T04:46:19;16.77;;;12.70;;
36745;SDS011;22715;52.182;21.206;2022-10-16T04:48:44;17.40;;;12.88;;
36745;SDS011;22715;52.182;21.206;2022-10-16T04:51:10;19.05;;;14.50;;
36745;SDS011;22715;52.182;21.206;2022-10-16T04:53:35;19.90;;;13.15;;
36745;SDS011;22715;52.182;21.206;2022-10-16T04:56:01;14.57;;;12.00;;
36745;SDS011;22715;52.182;21.206;2022-10-16T04:58:27;20.77;;;13.20;;
36745;SDS011;22715;52.182;21.206;2022-10-16T05:00:52;15.45;;;12.38;;
36745;SDS011;22715;52.182;21.206;2022-10-16T05:03:19;15.30;;;13.35;;
36745;SDS011;22715;52.182;21.206;2022-10-16T05:05:44;17.48;;;11.88;;
36745;SDS011;22715;52.182;21.206;2022-10-16T05:08:11;14.63;;;12.05;;
36745;SDS011;22715;52.182;21.206;2022-10-16T05:10:36;18.13;;;13.13;;
36745;SDS011;22715;52.182;21.206;2022-10-16T05:13:02;19.10;;;12.73;;
36745;SDS011;22715;52.182;21.206;2022-10-16T05:15:27;15.98;;;11.38;;
36745;SDS011;22715;52.182;21.206;2022-10-16T05:18:00;21.30;;;12.73;;
36745;SDS011;22715;52.182;21.206;2022-10-16T05:20:28;16.17;;;13.57;;
36745;SDS011;22715;52.182;21.206;2022-10-16T05:22:53;15.98;;;12.45;;
36745;SDS011;22715;52.182;21.206;2022-10-16T05:25:19;16.38;;;12.45;;
36745;SDS011;22715;52.182;21.206;2022-10-16T05:27:47;19.63;;;12.77;;
36745;SDS011;22715;52.182;21.206;2022-10-16T05:30:17;18.88;;;11.38;;
36745;SDS011;22715;52.182;21.206;2022-10-16T05:32:47;17.85;;;13.00;;
36745;SDS011;22715;52.182;21.206;2022-10-16T05:35:14;16.17;;;13.80;;
36745;SDS011;22715;52.182;21.206;2022-10-16T05:37:39;17.50;;;12.43;;
36745;SDS011;22715;52.182;21.206;2022-10-16T05:40:04;16.17;;;11.75;;
36745;SDS011;22715;52.182;21.206;2022-10-16T05:42:30;18.67;;;12.43;;
36745;SDS011;22715;52.182;21.206;2022-10-16T05:44:55;16.55;;;11.40;;
36745;SDS011;22715;52.182;21.206;2022-10-16T05:47:21;19.17;;;12.65;;
36745;SDS011;22715;52.182;21.206;2022-10-16T05:49:46;17.02;;;12.35;;
36745;SDS011;22715;52.182;21.206;2022-10-16T05:52:12;15.05;;;12.20;;
36745;SDS011;22715;52.182;21.206;2022-10-16T05:54:37;17.40;;;13.27;;
36745;SDS011;22715;52.182;21.206;2022-10-16T05:57:02;15.18;;;11.90;;
36745;SDS011;22715;52.182;21.206;2022-10-16T05:59:30;20.45;;;12.95;;
36745;SDS011;22715;52.182;21.206;2022-10-16T06:01:55;17.83;;;11.48;;
36745;SDS011;22715;52.182;21.206;2022-10-16T06:04:24;19.63;;;13.85;;
36745;SDS011;22715;52.182;21.206;2022-10-16T06:09:23;22.48;;;12.80;;
36745;SDS011;22715;52.182;21.206;2022-10-16T06:11:48;16.92;;;12.63;;
36745;SDS011;22715;52.182;21.206;2022-10-16T06:14:13;17.63;;;12.77;;
36745;SDS011;22715;52.182;21.206;2022-10-16T06:16:39;16.40;;;11.85;;
36745;SDS011;22715;52.182;21.206;2022-10-16T06:19:06;16.60;;;12.68;;
36745;SDS011;22715;52.182;21.206;2022-10-16T06:21:33;21.20;;;13.43;;
36745;SDS011;22715;52.182;21.206;2022-10-16T06:23:58;15.32;;;12.80;;
36745;SDS011;22715;52.182;21.206;2022-10-16T06:26:25;19.58;;;13.07;;
36745;SDS011;22715;52.182;21.206;2022-10-16T06:28:50;18.70;;;11.75;;
36745;SDS011;22715;52.182;21.206;2022-10-16T06:31:16;18.30;;;13.43;;
36745;SDS011;22715;52.182;21.206;2022-10-16T06:33:42;15.85;;;11.32;;
36745;SDS011;22715;52.182;21.206;2022-10-16T06:36:11;15.75;;;12.40;;
36745;SDS011;22715;52.182;21.206;2022-10-16T06:38:37;17.67;;;13.00;;
36745;SDS011;22715;52.182;21.206;2022-10-16T06:41:03;17.92;;;11.38;;
36745;SDS011;22715;52.182;21.206;2022-10-16T06:43:29;16.02;;;12.20;;
36745;SDS011;22715;52.182;21.206;2022-10-16T06:45:58;18.80;;;11.30;;
36745;SDS011;22715;52.182;21.206;2022-10-16T06:48:24;15.88;;;11.82;;
36745;SDS011;22715;52.182;21.206;2022-10-16T06:51:00;16.45;;;11.20;;
36745;SDS011;22715;52.182;21.206;2022-10-16T06:53:26;17.77;;;11.82;;
36745;SDS011;22715;52.182;21.206;2022-10-16T06:55:52;16.23;;;11.35;;
36745;SDS011;22715;52.182;21.206;2022-10-16T06:58:17;14.98;;;11.20;;
36745;SDS011;22715;52.182;21.206;2022-10-16T07:00:43;15.43;;;11.43;;
36745;SDS011;22715;52.182;21.206;2022-10-16T07:03:08;14.25;;;10.68;;
36745;SDS011;22715;52.182;21.206;2022-10-16T07:05:37;14.18;;;10.15;;
36745;SDS011;22715;52.182;21.206;2022-10-16T07:08:03;12.48;;;10.60;;
36745;SDS011;22715;52.182;21.206;2022-10-16T07:10:30;15.18;;;11.70;;
36745;SDS011;22715;52.182;21.206;2022-10-16T07:12:56;13.90;;;10.85;;
36745;SDS011;22715;52.182;21.206;2022-10-16T07:15:21;15.75;;;10.68;;
36745;SDS011;22715;52.182;21.206;2022-10-16T07:17:46;16.30;;;11.07;;
36745;SDS011;22715;52.182;21.206;2022-10-16T07:20:13;14.90;;;11.05;;
36745;SDS011;22715;52.182;21.206;2022-10-16T07:22:38;14.98;;;11.15;;
36745;SDS011;22715;52.182;21.206;2022-10-16T07:25:04;15.13;;;9.45;;
36745;SDS011;22715;52.182;21.206;2022-10-16T07:27:29;19.85;;;11.23;;
36745;SDS011;22715;52.182;21.206;2022-10-16T07:29:54;17.45;;;10.52;;
36745;SDS011;22715;52.182;21.206;2022-10-16T07:32:20;13.23;;;10.38;;
36745;SDS011;22715;52.182;21.206;2022-10-16T07:34:45;13.10;;;10.57;;
36745;SDS011;22715;52.182;21.206;2022-10-16T07:37:10;16.55;;;10.05;;
36745;SDS011;22715;52.182;21.206;2022-10-16T07:39:36;21.90;;;13.07;;
36745;SDS011;22715;52.182;21.206;2022-10-16T07:42:01;14.98;;;9.63;;
36745;SDS011;22715;52.182;21.206;2022-10-16T07:44:26;15.35;;;10.88;;
36745;SDS011;22715;52.182;21.206;2022-10-16T07:46:52;17.50;;;10.68;;
36745;SDS011;22715;52.182;21.206;2022-10-16T07:49:17;11.30;;;8.93;;
36745;SDS011;22715;52.182;21.206;2022-10-16T07:51:42;12.60;;;10.30;;
36745;SDS011;22715;52.182;21.206;2022-10-16T07:54:08;12.40;;;10.82;;
36745;SDS011;22715;52.182;21.206;2022-10-16T07:56:34;13.25;;;9.40;;
36745;SDS011;22715;52.182;21.206;2022-10-16T07:58:59;14.30;;;9.88;;
36745;SDS011;22715;52.182;21.206;2022-10-16T08:01:24;16.45;;;10.93;;
36745;SDS011;22715;52.182;21.206;2022-10-16T08:03:50;15.40;;;10.95;;
36745;SDS011;22715;52.182;21.206;2022-10-16T08:06:19;12.60;;;10.02;;
36745;SDS011;22715;52.182;21.206;2022-10-16T08:08:48;13.73;;;9.77;;
36745;SDS011;22715;52.182;21.206;2022-10-16T08:11:17;12.57;;;8.88;;
36745;SDS011;22715;52.182;21.206;2022-10-16T08:13:45;12.90;;;9.75;;
36745;SDS011;22715;52.182;21.206;2022-10-16T08:16:16;16.23;;;10.32;;
36745;SDS011;22715;52.182;21.206;2022-10-16T08:18:44;13.55;;;10.55;;
36745;SDS011;22715;52.182;21.206;2022-10-16T08:21:20;11.10;;;9.43;;
36745;SDS011;22715;52.182;21.206;2022-10-16T08:23:45;14.05;;;10.75;;
36745;SDS011;22715;52.182;21.206;2022-10-16T08:26:11;12.57;;;9.48;;
36745;SDS011;22715;52.182;21.206;2022-10-16T08:28:36;12.73;;;8.70;;
36745;SDS011;22715;52.182;21.206;2022-10-16T08:31:12;13.25;;;9.05;;
36745;SDS011;22715;52.182;21.206;2022-10-16T08:33:38;13.35;;;9.98;;
36745;SDS011;22715;52.182;21.206;2022-10-16T08:36:04;11.27;;;7.85;;
36745;SDS011;22715;52.182;21.206;2022-10-16T08:38:30;10.40;;;8.80;;
36745;SDS011;22715;52.182;21.206;2022-10-16T08:40:57;9.20;;;8.00;;
36745;SDS011;22715;52.182;21.206;2022-10-16T08:46:15;13.45;;;8.30;;
36745;SDS011;22715;52.182;21.206;2022-10-16T08:48:48;11.85;;;8.23;;
36745;SDS011;22715;52.182;21.206;2022-10-16T08:51:36;9.73;;;7.85;;
36745;SDS011;22715;52.182;21.206;2022-10-16T08:54:03;10.93;;;8.38;;
36745;SDS011;22715;52.182;21.206;2022-10-16T08:56:29;11.65;;;9.18;;
36745;SDS011;22715;52.182;21.206;2022-10-16T08:58:57;13.65;;;8.73;;
36745;SDS011;22715;52.182;21.206;2022-10-16T09:01:23;12.65;;;9.30;;
36745;SDS011;22715;52.182;21.206;2022-10-16T09:06:50;11.02;;;8.38;;
36745;SDS011;22715;52.182;21.206;2022-10-16T09:14:40;8.70;;;7.57;;
36745;SDS011;22715;52.182;21.206;2022-10-16T09:19:38;10.93;;;7.85;;
36745;SDS011;22715;52.182;21.206;2022-10-16T09:22:10;12.02;;;8.77;;
36745;SDS011;22715;52.182;21.206;2022-10-16T09:24:37;12.18;;;7.70;;
36745;SDS011;22715;52.182;21.206;2022-10-16T09:27:02;10.32;;;7.38;;
36745;SDS011;22715;52.182;21.206;2022-10-16T09:29:28;10.30;;;7.65;;
36745;SDS011;22715;52.182;21.206;2022-10-16T09:31:53;11.93;;;9.00;;
36745;SDS011;22715;52.182;21.206;2022-10-16T09:34:29;10.10;;;8.07;;
36745;SDS011;22715;52.182;21.206;2022-10-16T09:37:04;8.13;;;6.97;;
36745;SDS011;22715;52.182;21.206;2022-10-16T09:39:43;8.77;;;7.00;;
36745;SDS011;22715;52.182;21.206;2022-10-16T09:42:18;12.73;;;9.55;;
36745;SDS011;22715;52.182;21.206;2022-10-16T09:44:50;8.57;;;7.63;;
36745;SDS011;22715;52.182;21.206;2022-10-16T09:47:17;10.05;;;7.88;;
36745;SDS011;22715;52.182;21.206;2022-10-16T09:49:59;12.25;;;8.57;;
36745;SDS011;22715;52.182;21.206;2022-10-16T09:52:27;11.52;;;9.43;;
36745;SDS011;22715;52.182;21.206;2022-10-16T09:54:56;10.65;;;7.05;;
36745;SDS011;22715;52.182;21.206;2022-10-16T09:57:22;9.70;;;7.93;;
36745;SDS011;22715;52.182;21.206;2022-10-16T09:59:48;7.65;;;6.78;;
36745;SDS011;22715;52.182;21.206;2022-10-16T10:02:14;11.30;;;7.85;;
36745;SDS011;22715;52.182;21.206;2022-10-16T10:04:41;12.68;;;7.55;;
36745;SDS011;22715;52.182;21.206;2022-10-16T10:07:17;12.45;;;8.18;;
36745;SDS011;22715;52.182;21.206;2022-10-16T10:09:43;11.55;;;7.65;;
36745;SDS011;22715;52.182;21.206;2022-10-16T10:12:19;11.95;;;7.72;;
36745;SDS011;22715;52.182;21.206;2022-10-16T10:14:49;10.93;;;8.00;;
36745;SDS011;22715;52.182;21.206;2022-10-16T10:17:27;11.33;;;8.27;;
36745;SDS011;22715;52.182;21.206;2022-10-16T10:20:00;10.75;;;7.78;;
36745;SDS011;22715;52.182;21.206;2022-10-16T10:22:27;7.78;;;6.78;;
36745;SDS011;22715;52.182;21.206;2022-10-16T10:35:22;10.20;;;8.00;;
36745;SDS011;22715;52.182;21.206;2022-10-16T10:42:57;8.77;;;7.00;;
36745;SDS011;22715;52.182;21.206;2022-10-16T10:45:27;10.20;;;6.80;;
36745;SDS011;22715;52.182;21.206;2022-10-16T10:48:03;10.50;;;7.43;;
36745;SDS011;22715;52.182;21.206;2022-10-16T10:50:54;10.35;;;8.35;;
36745;SDS011;22715;52.182;21.206;2022-10-16T10:53:46;11.90;;;7.15;;
36745;SDS011;22715;52.182;21.206;2022-10-16T11:01:48;9.02;;;7.38;;
36745;SDS011;22715;52.182;21.206;2022-10-16T11:04:10;9.55;;;7.57;;
36745;SDS011;22715;52.182;21.206;2022-10-16T11:09:10;11.70;;;7.88;;
36745;SDS011;22715;52.182;21.206;2022-10-16T11:14:08;10.38;;;7.38;;
36745;SDS011;22715;52.182;21.206;2022-10-16T11:16:42;8.77;;;7.00;;
36745;SDS011;22715;52.182;21.206;2022-10-16T11:19:18;14.40;;;7.93;;
36745;SDS011;22715;52.182;21.206;2022-10-16T11:21:49;7.75;;;6.32;;
36745;SDS011;22715;52.182;21.206;2022-10-16T11:26:45;8.15;;;6.28;;
36745;SDS011;22715;52.182;21.206;2022-10-16T11:29:13;8.68;;;6.28;;
36745;SDS011;22715;52.182;21.206;2022-10-16T11:31:43;10.32;;;6.82;;
36745;SDS011;22715;52.182;21.206;2022-10-16T11:34:13;8.57;;;6.80;;
36745;SDS011;22715;52.182;21.206;2022-10-16T11:42:02;9.63;;;7.53;;
36745;SDS011;22715;52.182;21.206;2022-10-16T11:44:38;9.27;;;7.40;;
36745;SDS011;22715;52.182;21.206;2022-10-16T11:49:33;10.07;;;6.32;;
36745;SDS011;22715;52.182;21.206;2022-10-16T11:54:41;16.48;;;7.28;;
36745;SDS011;22715;52.182;21.206;2022-10-16T11:57:10;9.65;;;7.22;;
36745;SDS011;22715;52.182;21.206;2022-10-16T11:59:55;8.63;;;6.28;;
36745;SDS011;22715;52.182;21.206;2022-10-16T12:02:28;9.68;;;6.90;;
36745;SDS011;22715;52.182;21.206;2022-10-16T12:05:02;7.72;;;6.05;;
36745;SDS011;22715;52.182;21.206;2022-10-16T12:07:32;10.30;;;6.43;;
36745;SDS011;22715;52.182;21.206;2022-10-16T12:10:10;14.10;;;6.53;;
36745;SDS011;22715;52.182;21.206;2022-10-16T12:15:18;12.07;;;7.28;;
36745;SDS011;22715;52.182;21.206;2022-10-16T12:17:43;8.40;;;6.95;;
36745;SDS011;22715;52.182;21.206;2022-10-16T12:22:57;9.15;;;6.40;;
36745;SDS011;22715;52.182;21.206;2022-10-16T12:28:07;8.43;;;6.75;;
36745;SDS011;22715;52.182;21.206;2022-10-16T12:30:42;8.30;;;5.88;;
36745;SDS011;22715;52.182;21.206;2022-10-16T12:33:19;6.95;;;6.03;;
36745;SDS011;22715;52.182;21.206;2022-10-16T12:35:49;9.88;;;7.13;;
36745;SDS011;22715;52.182;21.206;2022-10-16T12:38:25;8.30;;;6.03;;
36745;SDS011;22715;52.182;21.206;2022-10-16T12:40:59;8.68;;;5.45;;
36745;SDS011;22715;52.182;21.206;2022-10-16T12:46:02;14.10;;;6.50;;
36745;SDS011;22715;52.182;21.206;2022-10-16T12:48:28;7.47;;;5.78;;
36745;SDS011;22715;52.182;21.206;2022-10-16T12:50:54;9.73;;;6.75;;
36745;SDS011;22715;52.182;21.206;2022-10-16T12:53:20;6.32;;;5.15;;
36745;SDS011;22715;52.182;21.206;2022-10-16T12:58:51;8.45;;;6.68;;
36745;SDS011;22715;52.182;21.206;2022-10-16T13:01:17;9.10;;;5.95;;
36745;SDS011;22715;52.182;21.206;2022-10-16T13:14:03;8.30;;;5.95;;
36745;SDS011;22715;52.182;21.206;2022-10-16T13:24:53;8.13;;;6.32;;
36745;SDS011;22715;52.182;21.206;2022-10-16T13:29:48;6.78;;;5.47;;
36745;SDS011;22715;52.182;21.206;2022-10-16T13:32:17;8.15;;;5.97;;
36745;SDS011;22715;52.182;21.206;2022-10-16T13:34:46;15.57;;;5.95;;
36745;SDS011;22715;52.182;21.206;2022-10-16T13:37:22;9.07;;;7.25;;
36745;SDS011;22715;52.182;21.206;2022-10-16T13:39:47;10.20;;;6.60;;
36745;SDS011;22715;52.182;21.206;2022-10-16T13:42:28;6.97;;;5.50;;
36745;SDS011;22715;52.182;21.206;2022-10-16T13:44:54;10.07;;;6.18;;
36745;SDS011;22715;52.182;21.206;2022-10-16T13:47:20;7.72;;;6.25;;
36745;SDS011;22715;52.182;21.206;2022-10-16T13:49:46;8.98;;;6.50;;
36745;SDS011;22715;52.182;21.206;2022-10-16T13:52:19;11.63;;;7.75;;
36745;SDS011;22715;52.182;21.206;2022-10-16T13:54:45;8.38;;;6.18;;
36745;SDS011;22715;52.182;21.206;2022-10-16T13:57:14;10.10;;;6.72;;
36745;SDS011;22715;52.182;21.206;2022-10-16T13:59:39;9.98;;;7.50;;
36745;SDS011;22715;52.182;21.206;2022-10-16T14:02:16;6.82;;;6.07;;
36745;SDS011;22715;52.182;21.206;2022-10-16T14:04:43;9.35;;;7.22;;
36745;SDS011;22715;52.182;21.206;2022-10-16T14:07:18;9.02;;;6.60;;
36745;SDS011;22715;52.182;21.206;2022-10-16T14:09:47;9.55;;;7.05;;
36745;SDS011;22715;52.182;21.206;2022-10-16T14:12:12;10.63;;;7.07;;
36745;SDS011;22715;52.182;21.206;2022-10-16T14:14:42;13.30;;;8.73;;
36745;SDS011;22715;52.182;21.206;2022-10-16T14:17:48;12.00;;;8.05;;
36745;SDS011;22715;52.182;21.206;2022-10-16T14:20:03;11.07;;;7.50;;
36745;SDS011;22715;52.182;21.206;2022-10-16T14:22:33;10.07;;;7.63;;
36745;SDS011;22715;52.182;21.206;2022-10-16T14:24:59;17.48;;;9.52;;
36745;SDS011;22715;52.182;21.206;2022-10-16T14:27:32;11.05;;;7.53;;
36745;SDS011;22715;52.182;21.206;2022-10-16T14:30:14;11.55;;;8.75;;
36745;SDS011;22715;52.182;21.206;2022-10-16T14:32:40;12.35;;;8.95;;
36745;SDS011;22715;52.182;21.206;2022-10-16T14:35:21;15.73;;;8.45;;
36745;SDS011;22715;52.182;21.206;2022-10-16T14:37:50;8.73;;;7.15;;
36745;SDS011;22715;52.182;21.206;2022-10-16T14:40:15;10.75;;;7.32;;
36745;SDS011;22715;52.182;21.206;2022-10-16T14:42:42;10.82;;;7.03;;
36745;SDS011;22715;52.182;21.206;2022-10-16T14:45:08;10.98;;;7.85;;
36745;SDS011;22715;52.182;21.206;2022-10-16T14:47:34;8.88;;;6.22;;
36745;SDS011;22715;52.182;21.206;2022-10-16T14:50:01;10.02;;;6.72;;
36745;SDS011;22715;52.182;21.206;2022-10-16T14:52:26;10.75;;;7.40;;
36745;SDS011;22715;52.182;21.206;2022-10-16T14:54:52;9.20;;;7.15;;
36745;SDS011;22715;52.182;21.206;2022-10-16T14:57:22;12.10;;;7.18;;
36745;SDS011;22715;52.182;21.206;2022-10-16T14:59:48;11.57;;;6.38;;
36745;SDS011;22715;52.182;21.206;2022-10-16T15:04:48;9.60;;;7.22;;
36745;SDS011;22715;52.182;21.206;2022-10-16T15:07:14;8.65;;;6.63;;
36745;SDS011;22715;52.182;21.206;2022-10-16T15:09:39;12.45;;;7.85;;
36745;SDS011;22715;52.182;21.206;2022-10-16T15:12:04;10.35;;;6.00;;
36745;SDS011;22715;52.182;21.206;2022-10-16T15:14:30;11.02;;;8.05;;
36745;SDS011;22715;52.182;21.206;2022-10-16T15:16:55;11.70;;;8.20;;
36745;SDS011;22715;52.182;21.206;2022-10-16T15:19:20;7.35;;;6.20;;
36745;SDS011;22715;52.182;21.206;2022-10-16T15:21:46;8.38;;;6.50;;
36745;SDS011;22715;52.182;21.206;2022-10-16T15:24:12;8.55;;;7.63;;
36745;SDS011;22715;52.182;21.206;2022-10-16T15:26:38;9.63;;;6.93;;
36745;SDS011;22715;52.182;21.206;2022-10-16T15:29:03;13.30;;;8.38;;
36745;SDS011;22715;52.182;21.206;2022-10-16T15:31:28;8.50;;;7.35;;
36745;SDS011;22715;52.182;21.206;2022-10-16T15:33:54;10.85;;;7.05;;
36745;SDS011;22715;52.182;21.206;2022-10-16T15:36:27;13.18;;;8.02;;
36745;SDS011;22715;52.182;21.206;2022-10-16T15:38:53;11.38;;;7.82;;
36745;SDS011;22715;52.182;21.206;2022-10-16T15:41:18;8.02;;;7.22;;
36745;SDS011;22715;52.182;21.206;2022-10-16T15:43:44;10.18;;;7.47;;
36745;SDS011;22715;52.182;21.206;2022-10-16T15:46:11;12.93;;;9.07;;
36745;SDS011;22715;52.182;21.206;2022-10-16T15:48:37;10.05;;;7.13;;
36745;SDS011;22715;52.182;21.206;2022-10-16T15:51:06;10.25;;;8.02;;
36745;SDS011;22715;52.182;21.206;2022-10-16T15:53:31;10.13;;;7.78;;
36745;SDS011;22715;52.182;21.206;2022-10-16T15:55:56;8.57;;;7.55;;
36745;SDS011;22715;52.182;21.206;2022-10-16T15:58:22;8.68;;;7.20;;
36745;SDS011;22715;52.182;21.206;2022-10-16T16:00:54;9.85;;;7.63;;
36745;SDS011;22715;52.182;21.206;2022-10-16T16:03:20;9.15;;;7.60;;